createdAt,value
2017-01-27T00:00:00.866Z,21.11
2017-01-27T00:01:00.488Z,20.08
2017-01-27T00:02:00.404Z,17.96
2017-01-27T00:03:00.544Z,17.71
2017-01-27T00:04:00.925Z,16.64
2017-01-27T00:05:00.686Z,15.36
2017-01-27T00:06:00.888Z,14.79
2017-01-27T00:07:01.653Z,15.62
2017-01-27T00:08:01.768Z,14.56
2017-01-27T00:09:02.209Z,15.91
2017-01-27T00:10:01.661Z,15.88
2017-01-27T00:11:01.693Z,15.64
2017-01-27T00:12:00.807Z,16.1
2017-01-27T00:13:00.904Z,16.84
2017-01-27T00:14:00.817Z,16.83
2017-01-27T00:15:00.892Z,16.99
2017-01-27T00:16:00.888Z,17.28
2017-01-27T00:16:58.367Z,17.45
2017-01-27T00:17:58.370Z,17.17
2017-01-27T00:18:58.449Z,17.89
2017-01-27T00:19:58.377Z,16.59
2017-01-27T00:20:58.373Z,17.29
2017-01-27T00:21:58.381Z,16.53
2017-01-27T00:22:58.377Z,15.5
2017-01-27T00:23:58.371Z,13.91
2017-01-27T00:24:58.407Z,12.61
2017-01-27T00:25:58.374Z,12.31
2017-01-27T00:26:58.370Z,10.76
2017-01-27T00:27:58.383Z,10.41
2017-01-27T00:28:58.378Z,10.17
2017-01-27T00:29:58.362Z,9.92
2017-01-27T00:30:58.373Z,9.88
2017-01-27T00:31:58.384Z,9.6
2017-01-27T00:32:58.391Z,9.64
2017-01-27T00:33:58.388Z,8.2
2017-01-27T00:34:58.373Z,5.87
2017-01-27T00:35:58.379Z,3.98
2017-01-27T00:36:58.401Z,3.23
2017-01-27T00:37:58.377Z,2.99
2017-01-27T00:38:58.378Z,2.19
2017-01-27T00:39:58.443Z,1.19
2017-01-27T00:40:58.381Z,0.06
2017-01-27T00:41:58.379Z,-0.14
2017-01-27T00:42:58.423Z,0.43
2017-01-27T00:43:58.397Z,0.1
2017-01-27T00:44:58.381Z,-0.12
2017-01-27T00:45:58.386Z,-0.18
2017-01-27T00:46:58.390Z,-0.75
2017-01-27T00:47:58.388Z,-0.14
2017-01-27T00:48:58.392Z,-1.21
2017-01-27T00:49:58.458Z,-2.84
2017-01-27T00:50:58.395Z,-4.94
2017-01-27T00:51:58.396Z,-7.56
2017-01-27T00:52:58.386Z,-8.82
2017-01-27T00:53:58.392Z,-11.51
2017-01-27T00:54:58.386Z,-12.82
2017-01-27T00:55:58.391Z,-13.14
2017-01-27T00:56:58.385Z,-15.45
2017-01-27T00:57:58.394Z,-16.25
2017-01-27T00:58:58.393Z,-19.48
2017-01-27T00:59:58.404Z,-22.29
2017-01-27T01:00:58.385Z,-24.15
2017-01-27T01:01:58.408Z,-28.36
2017-01-27T01:02:58.417Z,-29.71
2017-01-27T01:03:58.387Z,-30.51
2017-01-27T01:04:58.430Z,-32.3
2017-01-27T01:05:58.433Z,-34.25
2017-01-27T01:06:58.396Z,-36.38
2017-01-27T01:07:58.407Z,-36.91
2017-01-27T01:08:58.402Z,-37.98
2017-01-27T01:09:58.399Z,-40.73
2017-01-27T01:10:58.392Z,-41.26
2017-01-27T01:11:58.402Z,-42.56
2017-01-27T01:12:58.406Z,-43.2
2017-01-27T01:13:58.398Z,-42.41
2017-01-27T01:14:58.409Z,-42.41
2017-01-27T01:15:58.400Z,-42.67
2017-01-27T01:16:58.412Z,-42.95
2017-01-27T01:17:58.414Z,-43.08
2017-01-27T01:18:58.407Z,-44.03
2017-01-27T01:19:58.406Z,-43.46
2017-01-27T01:20:58.400Z,-42.14
2017-01-27T01:21:58.412Z,-43.22
2017-01-27T01:22:58.412Z,-42.67
2017-01-27T01:23:58.406Z,-42.37
2017-01-27T01:24:58.422Z,-40.33
2017-01-27T01:25:58.403Z,-40.25
2017-01-27T01:26:58.411Z,-41.06
2017-01-27T01:27:58.401Z,-40.73
2017-01-27T01:28:58.409Z,-39.64
2017-01-27T01:29:58.418Z,-40.97
2017-01-27T01:30:58.421Z,-40.95
2017-01-27T01:31:58.406Z,-40.74
2017-01-27T01:32:58.407Z,-41.29
2017-01-27T01:33:58.442Z,-40.84
2017-01-27T01:34:58.435Z,-41.14
2017-01-27T01:35:58.407Z,-39.58
2017-01-27T01:36:58.406Z,-39.67
2017-01-27T01:37:58.416Z,-39.17
2017-01-27T01:38:58.424Z,-38.28
2017-01-27T01:39:58.409Z,-38.05
2017-01-27T01:40:58.420Z,-37.79
2017-01-27T01:41:58.422Z,-37.79
2017-01-27T01:42:58.422Z,-37.76
2017-01-27T01:43:58.432Z,-36.91
2017-01-27T01:44:58.414Z,-36.92
2017-01-27T01:45:58.419Z,-37.45
2017-01-27T01:46:58.419Z,-36.42
2017-01-27T01:47:58.408Z,-34.58
2017-01-27T01:48:58.425Z,-31.94
2017-01-27T01:49:58.426Z,-30.98
2017-01-27T01:50:58.431Z,-29.39
2017-01-27T01:51:58.420Z,-29.99
2017-01-27T01:52:58.471Z,-29.72
2017-01-27T01:53:58.435Z,-30.52
2017-01-27T01:54:58.427Z,-30.29
2017-01-27T01:55:58.441Z,-31.9
2017-01-27T01:56:58.422Z,-32.75
2017-01-27T01:57:58.425Z,-33.91
2017-01-27T01:58:58.425Z,-35.24
2017-01-27T01:59:58.429Z,-38.45
2017-01-27T02:00:58.417Z,-39.29
2017-01-27T02:01:58.432Z,-40.41
2017-01-27T02:02:58.448Z,-42.19
2017-01-27T02:03:58.429Z,-42.71
2017-01-27T02:04:58.428Z,-45.06
2017-01-27T02:05:58.427Z,-45.27
2017-01-27T02:06:58.433Z,-45.94
2017-01-27T02:07:58.427Z,-46.47
2017-01-27T02:08:58.424Z,-47.78
2017-01-27T02:09:58.434Z,-48.62
2017-01-27T02:10:58.432Z,-49.45
2017-01-27T02:11:58.441Z,-50.77
2017-01-27T02:12:58.438Z,-51.74
2017-01-27T02:13:58.442Z,-52.34
2017-01-27T02:14:58.445Z,-52.6
2017-01-27T02:15:58.444Z,-53.21
2017-01-27T02:16:58.441Z,-53.19
2017-01-27T02:17:58.440Z,-52.99
2017-01-27T02:18:58.463Z,-53.5
2017-01-27T02:19:58.438Z,-54.6
2017-01-27T02:20:58.431Z,-53.82
2017-01-27T02:21:58.439Z,-53.34
2017-01-27T02:22:58.450Z,-51.46
2017-01-27T02:23:58.462Z,-50.95
2017-01-27T02:24:58.450Z,-51.01
2017-01-27T02:25:58.451Z,-52.06
2017-01-27T02:26:58.437Z,-51.84
2017-01-27T02:27:58.448Z,-51.01
2017-01-27T02:28:58.439Z,-49.74
2017-01-27T02:29:58.443Z,-47.7
2017-01-27T02:30:58.444Z,-44.52
2017-01-27T02:31:58.447Z,-40.35
2017-01-27T02:32:58.461Z,-36.6
2017-01-27T02:33:58.453Z,-34.55
2017-01-27T02:34:58.453Z,-32.46
2017-01-27T02:35:58.466Z,-30.3
2017-01-27T02:36:58.458Z,-31.16
2017-01-27T02:37:58.453Z,-31.04
2017-01-27T02:38:58.459Z,-30.78
2017-01-27T02:39:58.459Z,-31.06
2017-01-27T02:40:58.479Z,-30.91
2017-01-27T02:41:58.459Z,-29.55
2017-01-27T02:42:58.462Z,-27.73
2017-01-27T02:43:58.443Z,-24.55
2017-01-27T02:44:58.455Z,-22.23
2017-01-27T02:45:58.469Z,-20.66
2017-01-27T02:46:58.459Z,-20.13
2017-01-27T02:47:58.456Z,-19.54
2017-01-27T02:48:58.472Z,-20.32
2017-01-27T02:49:58.456Z,-19.89
2017-01-27T02:50:58.474Z,-19.91
2017-01-27T02:51:58.463Z,-19.59
2017-01-27T02:52:58.475Z,-18.04
2017-01-27T02:53:58.467Z,-15.87
2017-01-27T02:54:58.469Z,-15.34
2017-01-27T02:55:58.464Z,-13.95
2017-01-27T02:56:58.463Z,-14.19
2017-01-27T02:57:58.461Z,-11.35
2017-01-27T02:58:58.466Z,-11.87
2017-01-27T02:59:58.457Z,-10.53
2017-01-27T03:00:58.463Z,-9.98
2017-01-27T03:01:58.457Z,-9.24
2017-01-27T03:02:58.480Z,-8.96
2017-01-27T03:03:58.459Z,-9.3
2017-01-27T03:04:58.460Z,-8.79
2017-01-27T03:05:58.484Z,-7.73
2017-01-27T03:06:58.478Z,-7.67
2017-01-27T03:07:58.463Z,-8.22
2017-01-27T03:08:58.462Z,-10.36
2017-01-27T03:09:58.471Z,-10.32
2017-01-27T03:10:58.472Z,-11.64
2017-01-27T03:11:58.468Z,-13
2017-01-27T03:12:58.472Z,-14.89
2017-01-27T03:13:58.471Z,-15.12
2017-01-27T03:14:58.481Z,-14.53
2017-01-27T03:15:58.475Z,-14.76
2017-01-27T03:16:58.475Z,-15.01
2017-01-27T03:17:58.470Z,-16.33
2017-01-27T03:18:58.478Z,-16.7
2017-01-27T03:19:58.473Z,-17.83
2017-01-27T03:20:58.470Z,-18.17
2017-01-27T03:21:58.476Z,-19.52
2017-01-27T03:22:58.475Z,-18.63
2017-01-27T03:23:58.480Z,-19.22
2017-01-27T03:24:58.471Z,-18.74
2017-01-27T03:25:58.475Z,-20.09
2017-01-27T03:26:58.481Z,-21.5
2017-01-27T03:27:58.473Z,-22.87
2017-01-27T03:28:58.478Z,-23.94
2017-01-27T03:29:58.472Z,-25.32
2017-01-27T03:30:58.476Z,-27.64
2017-01-27T03:31:58.475Z,-28.48
2017-01-27T03:32:58.479Z,-29.37
2017-01-27T03:33:58.491Z,-29.9
2017-01-27T03:34:58.481Z,-31.24
2017-01-27T03:35:58.483Z,-32.32
2017-01-27T03:36:58.482Z,-33.62
2017-01-27T03:37:58.557Z,-35.49
2017-01-27T03:38:58.477Z,-36.76
2017-01-27T03:39:58.487Z,-38.85
2017-01-27T03:40:58.492Z,-40.2
2017-01-27T03:41:58.479Z,-42.01
2017-01-27T03:42:58.500Z,-43.5
2017-01-27T03:43:58.493Z,-45.08
2017-01-27T03:44:58.524Z,-45.58
2017-01-27T03:45:58.536Z,-47.43
2017-01-27T03:46:58.559Z,-49.29
2017-01-27T03:47:58.532Z,-50.95
2017-01-27T03:48:58.510Z,-50.25
2017-01-27T03:49:58.508Z,-51.83
2017-01-27T03:50:58.496Z,-51.02
2017-01-27T03:51:58.498Z,-52.09
2017-01-27T03:52:58.496Z,-52.89
2017-01-27T03:53:58.509Z,-53.96
2017-01-27T03:54:58.495Z,-54.44
2017-01-27T03:55:58.502Z,-55.48
2017-01-27T03:56:58.508Z,-57.34
2017-01-27T03:57:58.485Z,-58.64
2017-01-27T03:58:58.502Z,-61.15
2017-01-27T03:59:58.500Z,-62.89
2017-01-27T04:00:58.530Z,-63.9
2017-01-27T04:01:58.502Z,-64.5
2017-01-27T04:02:58.503Z,-65.84
2017-01-27T04:03:58.496Z,-66.61
2017-01-27T04:04:58.495Z,-67.72
2017-01-27T04:05:58.552Z,-67.93
2017-01-27T04:06:58.515Z,-68.37
2017-01-27T04:07:58.509Z,-68.62
2017-01-27T04:08:58.505Z,-69.2
2017-01-27T04:09:58.500Z,-69.89
2017-01-27T04:10:58.550Z,-71.06
2017-01-27T04:11:58.493Z,-72.32
2017-01-27T04:12:58.512Z,-72.82
2017-01-27T04:13:58.512Z,-74.71
2017-01-27T04:14:58.502Z,-75.81
2017-01-27T04:15:58.510Z,-76.88
2017-01-27T04:16:58.499Z,-76.82
2017-01-27T04:17:58.501Z,-80.52
2017-01-27T04:18:58.514Z,-81.77
2017-01-27T04:19:58.505Z,-83.09
2017-01-27T04:20:58.508Z,-85.26
2017-01-27T04:21:58.503Z,-92.34
2017-01-27T04:22:58.522Z,-88.76
2017-01-27T04:23:58.507Z,-89.32
2017-01-27T04:24:58.504Z,-90.72
2017-01-27T04:25:58.513Z,-90.7
2017-01-27T04:26:58.502Z,-92.57
2017-01-27T04:27:58.509Z,-92.3
2017-01-27T04:28:58.509Z,-93.12
2017-01-27T04:29:58.512Z,-94.05
2017-01-27T04:30:58.517Z,-94.31
2017-01-27T04:31:58.516Z,-95.93
2017-01-27T04:32:58.516Z,-96.87
2017-01-27T04:33:58.511Z,-96.25
2017-01-27T04:34:58.516Z,-96.5
2017-01-27T04:35:58.512Z,-95.87
2017-01-27T04:36:58.516Z,-95.27
2017-01-27T04:37:58.523Z,-95.53
2017-01-27T04:38:58.510Z,-96.61
2017-01-27T04:39:58.521Z,-96.86
2017-01-27T04:40:58.520Z,-96.86
2017-01-27T04:41:58.524Z,-98.47
2017-01-27T04:42:58.531Z,-97.44
2017-01-27T04:43:58.525Z,-98.79
2017-01-27T04:44:58.537Z,-97.63
2017-01-27T04:45:58.520Z,-97.85
2017-01-27T04:46:58.527Z,-97.63
2017-01-27T04:47:58.533Z,-98.99
2017-01-27T04:48:58.529Z,-99.3
2017-01-27T04:49:58.529Z,-98.51
2017-01-27T04:50:58.525Z,-98.28
2017-01-27T04:51:58.531Z,-97.71
2017-01-27T04:52:58.519Z,-97.75
2017-01-27T04:53:58.529Z,-96.61
2017-01-27T04:54:58.532Z,-97.21
2017-01-27T04:55:58.526Z,-96.32
2017-01-27T04:56:58.536Z,-96.04
2017-01-27T04:57:58.523Z,-97.18
2017-01-27T04:58:58.539Z,-96.65
2017-01-27T04:59:58.530Z,-98.04
2017-01-27T05:00:58.548Z,-96.65
2017-01-27T05:01:58.541Z,-96.67
2017-01-27T05:02:58.531Z,-96.14
2017-01-27T05:03:58.525Z,-95.07
2017-01-27T05:04:58.531Z,-95.16
2017-01-27T05:05:58.531Z,-94.39
2017-01-27T05:06:58.536Z,-94.18
2017-01-27T05:07:58.531Z,-91.48
2017-01-27T05:08:58.556Z,-89.33
2017-01-27T05:09:58.537Z,-89.37
2017-01-27T05:10:58.539Z,-88.34
2017-01-27T05:11:58.532Z,-88.02
2017-01-27T05:12:58.565Z,-87.44
2017-01-27T05:13:58.536Z,-87.74
2017-01-27T05:14:58.538Z,-87.98
2017-01-27T05:15:58.545Z,-87.74
2017-01-27T05:16:58.541Z,-88.83
2017-01-27T05:17:58.560Z,-88.8
2017-01-27T05:18:58.544Z,-87.67
2017-01-27T05:19:58.569Z,-88.99
2017-01-27T05:20:58.533Z,-90.71
2017-01-27T05:21:58.542Z,-90.7
2017-01-27T05:22:58.547Z,-90.64
2017-01-27T05:23:58.540Z,-91.21
2017-01-27T05:24:58.576Z,-92.58
2017-01-27T05:25:58.551Z,-93.79
2017-01-27T05:26:58.546Z,-94.52
2017-01-27T05:27:58.548Z,-94.55
2017-01-27T05:28:58.553Z,-94.25
2017-01-27T05:29:58.540Z,-94.23
2017-01-27T05:30:58.540Z,-94.76
2017-01-27T05:31:58.550Z,-94.98
2017-01-27T05:32:58.586Z,-94.7
2017-01-27T05:33:58.550Z,-94.34
2017-01-27T05:34:58.550Z,-94.95
2017-01-27T05:35:58.557Z,-95.99
2017-01-27T05:36:58.541Z,-96.48
2017-01-27T05:37:58.546Z,-95.63
2017-01-27T05:38:58.548Z,-100.34
2017-01-27T05:39:58.545Z,-98.13
2017-01-27T05:40:58.552Z,-97.27
2017-01-27T05:41:58.561Z,-98.41
2017-01-27T05:42:58.546Z,-97.36
2017-01-27T05:43:58.559Z,-96.79
2017-01-27T05:44:58.544Z,-95.96
2017-01-27T05:45:58.552Z,-95.96
2017-01-27T05:46:58.548Z,-95.99
2017-01-27T05:47:58.558Z,-95.48
2017-01-27T05:48:58.560Z,-94.08
2017-01-27T05:49:58.553Z,-92.74
2017-01-27T05:50:58.559Z,-91.71
2017-01-27T05:51:58.565Z,-89.79
2017-01-27T05:52:58.558Z,-88.44
2017-01-27T05:53:58.557Z,-87.96
2017-01-27T05:54:58.557Z,-86.6
2017-01-27T05:55:58.568Z,-85.3
2017-01-27T05:56:58.557Z,-84.54
2017-01-27T05:57:58.559Z,-82.43
2017-01-27T05:58:58.566Z,-80.08
2017-01-27T05:59:58.560Z,-78.45
2017-01-27T06:00:58.559Z,-75.83
2017-01-27T06:01:58.560Z,-74.16
2017-01-27T06:02:58.574Z,-73.78
2017-01-27T06:03:58.566Z,-73.46
2017-01-27T06:04:58.566Z,-74.28
2017-01-27T06:05:58.573Z,-74.14
2017-01-27T06:06:58.577Z,-74.86
2017-01-27T06:07:58.571Z,-76.16
2017-01-27T06:08:58.563Z,-76.13
2017-01-27T06:09:58.567Z,-79.03
2017-01-27T06:10:58.590Z,-79.31
2017-01-27T06:11:58.568Z,-80.12
2017-01-27T06:12:58.576Z,-82.26
2017-01-27T06:13:58.575Z,-83.05
2017-01-27T06:14:58.575Z,-83.61
2017-01-27T06:15:58.568Z,-84.7
2017-01-27T06:16:58.571Z,-86.09
2017-01-27T06:17:58.583Z,-86.7
2017-01-27T06:18:58.570Z,-86.76
2017-01-27T06:19:58.573Z,-87.36
2017-01-27T06:20:58.574Z,-88.71
2017-01-27T06:21:58.576Z,-87.87
2017-01-27T06:22:58.577Z,-86.97
2017-01-27T06:23:58.580Z,-87.57
2017-01-27T06:24:58.600Z,-87.75
2017-01-27T06:25:58.582Z,-87.78
2017-01-27T06:26:58.585Z,-87.86
2017-01-27T06:27:58.581Z,-88.14
2017-01-27T06:28:58.585Z,-89.26
2017-01-27T06:29:58.578Z,-88.74
2017-01-27T06:30:58.575Z,-88.72
2017-01-27T06:31:58.575Z,-88.73
2017-01-27T06:32:58.581Z,-88.11
2017-01-27T06:33:58.594Z,-89.11
2017-01-27T06:34:58.574Z,-89.08
2017-01-27T06:35:58.578Z,-90.37
2017-01-27T06:36:58.576Z,-90.66
2017-01-27T06:37:58.579Z,-90.37
2017-01-27T06:38:58.589Z,-91.76
2017-01-27T06:39:58.585Z,-90.91
2017-01-27T06:40:58.582Z,-90.35
2017-01-27T06:41:58.596Z,-88.75
2017-01-27T06:42:58.591Z,-87.94
2017-01-27T06:43:58.584Z,-86.86
2017-01-27T06:44:58.586Z,-85.19
2017-01-27T06:45:58.590Z,-84.74
2017-01-27T06:46:58.586Z,-83.41
2017-01-27T06:47:58.587Z,-82.66
2017-01-27T06:48:58.596Z,-81.85
2017-01-27T06:49:58.590Z,-79.76
2017-01-27T06:50:58.609Z,-79.23
2017-01-27T06:51:58.609Z,-78.43
2017-01-27T06:52:58.588Z,-77.56
2017-01-27T06:53:58.590Z,-74.56
2017-01-27T06:54:58.596Z,-73.55
2017-01-27T06:55:58.603Z,-72.73
2017-01-27T06:56:58.617Z,-69.99
2017-01-27T06:57:58.593Z,-67.41
2017-01-27T06:58:58.594Z,-66.11
2017-01-27T06:59:58.635Z,-63.44
2017-01-27T07:00:58.597Z,-61.12
2017-01-27T07:01:58.714Z,-59.53
2017-01-27T07:02:58.641Z,-56.15
2017-01-27T07:03:58.589Z,-51.32
2017-01-27T07:04:58.615Z,-48.09
2017-01-27T07:05:58.601Z,-45.53
2017-01-27T07:06:58.602Z,-42.3
2017-01-27T07:07:58.599Z,-38.85
2017-01-27T07:08:58.592Z,-36.19
2017-01-27T07:09:58.600Z,-32.46
2017-01-27T07:10:58.726Z,-30.95
2017-01-27T07:11:58.596Z,-29.14
2017-01-27T07:12:58.604Z,-25.16
2017-01-27T07:13:58.606Z,-21.24
2017-01-27T07:14:58.601Z,-18.61
2017-01-27T07:15:58.602Z,-16.75
2017-01-27T07:16:58.672Z,-13.61
2017-01-27T07:17:58.607Z,-11.32
2017-01-27T07:18:58.609Z,-8.13
2017-01-27T07:19:58.669Z,-5
2017-01-27T07:20:58.638Z,-4.21
2017-01-27T07:21:58.695Z,-2.16
2017-01-27T07:22:58.622Z,-1.11
2017-01-27T07:23:58.603Z,0.24
2017-01-27T07:24:58.595Z,2.27
2017-01-27T07:25:58.606Z,3.33
2017-01-27T07:26:58.597Z,6.48
2017-01-27T07:27:58.602Z,7.97
2017-01-27T07:28:58.607Z,9.82
2017-01-27T07:29:58.614Z,12.7
2017-01-27T07:30:58.608Z,14.77
2017-01-27T07:31:58.625Z,17.41
2017-01-27T07:32:58.624Z,19.67
2017-01-27T07:33:58.614Z,22.6
2017-01-27T07:34:58.622Z,25.21
2017-01-27T07:35:58.622Z,28.07
2017-01-27T07:36:58.619Z,30.09
2017-01-27T07:37:58.614Z,33.21
2017-01-27T07:38:58.615Z,34.62
2017-01-27T07:39:58.618Z,37.37
2017-01-27T07:40:58.625Z,41.29
2017-01-27T07:41:58.624Z,46.63
2017-01-27T07:42:58.620Z,49.98
2017-01-27T07:43:58.619Z,54
2017-01-27T07:44:58.629Z,57.27
2017-01-27T07:45:58.622Z,62.68
2017-01-27T07:46:58.614Z,66.4
2017-01-27T07:47:58.629Z,69.52
2017-01-27T07:48:58.625Z,72.56
2017-01-27T07:49:58.624Z,75.31
2017-01-27T07:50:58.614Z,78.11
2017-01-27T07:51:58.622Z,81.06
2017-01-27T07:52:58.622Z,83.87
2017-01-27T07:53:58.629Z,86.07
2017-01-27T07:54:58.642Z,89.12
2017-01-27T07:55:58.636Z,92.39
2017-01-27T07:56:58.662Z,95.68
2017-01-27T07:57:58.633Z,99.7
2017-01-27T07:58:58.619Z,103.97
2017-01-27T07:59:58.642Z,106.17
2017-01-27T08:00:58.625Z,109.84
2017-01-27T08:01:58.626Z,113.08
2017-01-27T08:02:58.624Z,115.8
2017-01-27T08:03:58.630Z,120.57
2017-01-27T08:04:58.630Z,124.13
2017-01-27T08:05:58.635Z,127.83
2017-01-27T08:06:58.645Z,132.04
2017-01-27T08:07:58.633Z,135.72
2017-01-27T08:08:58.636Z,140.68
2017-01-27T08:09:58.634Z,146.35
2017-01-27T08:10:58.640Z,150.47
2017-01-27T08:11:58.643Z,155.85
2017-01-27T08:12:58.631Z,160.09
2017-01-27T08:13:58.656Z,164.66
2017-01-27T08:14:58.647Z,168.24
2017-01-27T08:15:58.639Z,172.82
2017-01-27T08:16:58.650Z,178.46
2017-01-27T08:17:58.648Z,183.05
2017-01-27T08:18:58.643Z,186.66
2017-01-27T08:19:58.638Z,190.74
2017-01-27T08:20:58.644Z,194.65
2017-01-27T08:21:58.643Z,199
2017-01-27T08:22:58.647Z,204.47
2017-01-27T08:23:58.658Z,209.66
2017-01-27T08:24:58.646Z,216.86
2017-01-27T08:25:58.646Z,222.48
2017-01-27T08:26:58.654Z,229.77
2017-01-27T08:27:58.646Z,234.71
2017-01-27T08:28:58.646Z,239.65
2017-01-27T08:29:58.647Z,245.08
2017-01-27T08:30:58.650Z,250.91
2017-01-27T08:31:58.647Z,256.06
2017-01-27T08:32:58.653Z,259.57
2017-01-27T08:33:58.649Z,262.46
2017-01-27T08:34:58.640Z,267.21
2017-01-27T08:35:58.649Z,271.18
2017-01-27T08:36:58.654Z,274.63
2017-01-27T08:37:58.648Z,277.89
2017-01-27T08:38:58.657Z,280.86
2017-01-27T08:39:58.660Z,283.4
2017-01-27T08:40:58.651Z,286.14
2017-01-27T08:41:58.659Z,290.29
2017-01-27T08:42:58.656Z,294.36
2017-01-27T08:43:58.643Z,299.76
2017-01-27T08:44:58.648Z,303.34
2017-01-27T08:45:58.649Z,307.67
2017-01-27T08:46:58.649Z,312.94
2017-01-27T08:47:58.651Z,317.51
2017-01-27T08:48:58.658Z,321.07
2017-01-27T08:49:58.676Z,325.33
2017-01-27T08:50:58.668Z,328.73
2017-01-27T08:51:58.670Z,332.75
2017-01-27T08:52:58.659Z,336.14
2017-01-27T08:53:58.660Z,340.63
2017-01-27T08:54:58.660Z,337.32
2017-01-27T08:55:58.670Z,345.93
2017-01-27T08:56:58.657Z,349.08
2017-01-27T08:57:58.665Z,352.4
2017-01-27T08:58:58.664Z,356.2
2017-01-27T08:59:58.655Z,360.17
2017-01-27T09:00:58.671Z,362.65
2017-01-27T09:01:58.661Z,365.73
2017-01-27T09:02:58.682Z,369.5
2017-01-27T09:03:58.664Z,373.62
2017-01-27T09:04:58.667Z,378.51
2017-01-27T09:05:58.697Z,382
2017-01-27T09:06:58.665Z,386.38
2017-01-27T09:07:58.660Z,391.39
2017-01-27T09:08:58.695Z,395.98
2017-01-27T09:09:58.659Z,400.48
2017-01-27T09:10:58.680Z,403.93
2017-01-27T09:11:58.672Z,408.47
2017-01-27T09:12:58.662Z,413.41
2017-01-27T09:13:58.671Z,417.68
2017-01-27T09:14:58.671Z,420.26
2017-01-27T09:15:58.673Z,422.64
2017-01-27T09:16:58.676Z,424.98
2017-01-27T09:17:58.672Z,428.2
2017-01-27T09:18:58.676Z,430.34
2017-01-27T09:19:58.679Z,433.56
2017-01-27T09:20:58.677Z,435.69
2017-01-27T09:21:58.680Z,438.64
2017-01-27T09:22:58.678Z,440.29
2017-01-27T09:23:58.682Z,443.07
2017-01-27T09:24:58.689Z,443.94
2017-01-27T09:25:58.684Z,443.3
2017-01-27T09:26:58.690Z,443.16
2017-01-27T09:27:58.691Z,444.47
2017-01-27T09:28:58.672Z,445.83
2017-01-27T09:29:58.688Z,448.91
2017-01-27T09:30:58.684Z,449.53
2017-01-27T09:31:58.672Z,451.59
2017-01-27T09:32:58.686Z,453.18
2017-01-27T09:33:58.689Z,455.85
2017-01-27T09:34:58.682Z,458.26
2017-01-27T09:35:58.692Z,460.08
2017-01-27T09:36:58.695Z,460.62
2017-01-27T09:37:58.692Z,460.38
2017-01-27T09:38:58.694Z,459.14
2017-01-27T09:39:58.690Z,459.3
2017-01-27T09:40:58.683Z,458.87
2017-01-27T09:41:58.697Z,459.13
2017-01-27T09:42:58.689Z,457.72
2017-01-27T09:43:58.702Z,458.11
2017-01-27T09:44:58.693Z,458.69
2017-01-27T09:45:58.697Z,459.3
2017-01-27T09:46:58.701Z,461.85
2017-01-27T09:47:58.702Z,462.18
2017-01-27T09:48:58.703Z,464.89
2017-01-27T09:49:58.702Z,466.98
2017-01-27T09:50:58.696Z,468.62
2017-01-27T09:51:58.698Z,469.22
2017-01-27T09:52:58.724Z,467.45
2017-01-27T09:53:58.700Z,466.18
2017-01-27T09:54:58.922Z,468.14
2017-01-27T09:55:58.701Z,468.7
2017-01-27T09:56:58.703Z,470.64
2017-01-27T09:57:58.711Z,472.86
2017-01-27T09:58:58.701Z,474.75
2017-01-27T09:59:58.707Z,476.31
2017-01-27T10:00:58.700Z,478.21
2017-01-27T10:01:58.712Z,477.87
2017-01-27T10:02:58.701Z,478.93
2017-01-27T10:03:58.704Z,479.99
2017-01-27T10:04:58.714Z,480.49
2017-01-27T10:05:58.710Z,482.98
2017-01-27T10:06:58.710Z,483.78
2017-01-27T10:07:58.720Z,485.27
2017-01-27T10:08:58.712Z,486.76
2017-01-27T10:09:58.710Z,488.6
2017-01-27T10:10:58.708Z,489.34
2017-01-27T10:11:58.764Z,491.86
2017-01-27T10:12:58.708Z,495.51
2017-01-27T10:13:58.722Z,497.77
2017-01-27T10:14:58.709Z,499.72
2017-01-27T10:15:58.709Z,501.55
2017-01-27T10:16:58.706Z,502.99
2017-01-27T10:17:58.722Z,505.77
2017-01-27T10:18:58.717Z,507.55
2017-01-27T10:19:58.714Z,510.34
2017-01-27T10:20:58.715Z,513.01
2017-01-27T10:21:58.724Z,513.64
2017-01-27T10:22:58.718Z,515.92
2017-01-27T10:23:58.717Z,516.07
2017-01-27T10:24:58.727Z,520.08
2017-01-27T10:25:58.712Z,524.06
2017-01-27T10:26:58.714Z,525.8
2017-01-27T10:27:58.735Z,527.33
2017-01-27T10:28:58.736Z,531.71
2017-01-27T10:29:58.740Z,534.98
2017-01-27T10:30:58.724Z,538.77
2017-01-27T10:31:58.733Z,540.56
2017-01-27T10:32:58.727Z,541.75
2017-01-27T10:33:58.751Z,545.51
2017-01-27T10:34:58.729Z,549.12
2017-01-27T10:35:58.727Z,554.36
2017-01-27T10:36:58.734Z,559.36
2017-01-27T10:37:58.737Z,565.18
2017-01-27T10:38:58.717Z,571.39
2017-01-27T10:39:58.735Z,577.59
2017-01-27T10:40:58.737Z,581.68
2017-01-27T10:41:58.728Z,587.18
2017-01-27T10:42:58.742Z,591.55
2017-01-27T10:43:58.736Z,596.31
2017-01-27T10:44:58.744Z,602.45
2017-01-27T10:45:58.906Z,607.54
2017-01-27T10:46:58.731Z,613.89
2017-01-27T10:47:58.728Z,618.47
2017-01-27T10:48:58.732Z,623.97
2017-01-27T10:49:58.749Z,627.83
2017-01-27T10:50:58.740Z,630.29
2017-01-27T10:51:58.742Z,633.27
2017-01-27T10:52:58.735Z,637.76
2017-01-27T10:53:58.749Z,641.84
2017-01-27T10:54:58.762Z,645.67
2017-01-27T10:56:00.268Z,648.52
2017-01-27T10:56:58.805Z,652.15
2017-01-27T10:57:59.041Z,655.45
2017-01-27T10:58:58.783Z,659.64
2017-01-27T10:59:58.805Z,663.34
2017-01-27T11:00:58.775Z,666.78
2017-01-27T11:01:58.800Z,670.19
2017-01-27T11:02:58.777Z,672.29
2017-01-27T11:03:58.764Z,674.46
2017-01-27T11:04:58.763Z,676.27
2017-01-27T11:05:58.861Z,677.97
2017-01-27T11:06:58.752Z,678.38
2017-01-27T11:07:58.750Z,679.8
2017-01-27T11:08:58.854Z,681.9
2017-01-27T11:09:58.762Z,681.36
2017-01-27T11:10:58.739Z,682.79
2017-01-27T11:11:58.748Z,683.49
2017-01-27T11:12:58.752Z,684.77
2017-01-27T11:13:58.746Z,685.65
2017-01-27T11:14:58.748Z,685.8
2017-01-27T11:15:58.752Z,684.38
2017-01-27T11:16:58.746Z,685.36
2017-01-27T11:17:58.752Z,687.22
2017-01-27T11:18:58.756Z,688.88
2017-01-27T11:19:58.750Z,690
2017-01-27T11:20:58.754Z,690.8
2017-01-27T11:21:58.746Z,689.26
2017-01-27T11:22:58.759Z,692.12
2017-01-27T11:23:58.754Z,693.75
2017-01-27T11:24:58.761Z,695.28
2017-01-27T11:25:58.761Z,697.1
2017-01-27T11:26:58.823Z,699.59
2017-01-27T11:27:58.766Z,702.79
2017-01-27T11:28:58.755Z,705.88
2017-01-27T11:29:58.777Z,709.22
2017-01-27T11:30:58.782Z,712.43
2017-01-27T11:31:58.762Z,715.63
2017-01-27T11:32:58.768Z,717.28
2017-01-27T11:33:58.777Z,719.64
2017-01-27T11:34:58.826Z,721.53
2017-01-27T11:35:58.763Z,723.32
2017-01-27T11:36:58.777Z,725.19
2017-01-27T11:37:58.783Z,727.14
2017-01-27T11:38:58.789Z,729.12
2017-01-27T11:39:58.767Z,731.45
2017-01-27T11:40:58.791Z,733.25
2017-01-27T11:41:58.774Z,734.69
2017-01-27T11:42:58.759Z,736.99
2017-01-27T11:43:58.775Z,739.64
2017-01-27T11:44:58.773Z,742.24
2017-01-27T11:45:58.795Z,745.55
2017-01-27T11:46:58.797Z,748.33
2017-01-27T11:47:59.129Z,751.25
2017-01-27T11:48:58.845Z,754.29
2017-01-27T11:49:59.112Z,756.72
2017-01-27T11:50:59.817Z,759.28
2017-01-27T11:51:59.156Z,761.38
2017-01-27T11:52:58.783Z,763.14
2017-01-27T11:53:58.789Z,765.49
2017-01-27T11:54:58.780Z,768.35
2017-01-27T11:55:58.813Z,771.59
2017-01-27T11:56:58.787Z,774.62
2017-01-27T11:57:58.783Z,776.8
2017-01-27T11:58:58.789Z,779.28
2017-01-27T11:59:58.783Z,782.9
2017-01-27T12:00:58.786Z,786.69
2017-01-27T12:01:58.777Z,789.12
2017-01-27T12:02:58.786Z,792.23
2017-01-27T12:03:59.015Z,794.19
2017-01-27T12:04:58.786Z,797.52
2017-01-27T12:05:58.794Z,799.69
2017-01-27T12:06:58.803Z,801.2
2017-01-27T12:07:58.783Z,802.95
2017-01-27T12:08:58.790Z,804.85
2017-01-27T12:09:58.794Z,807.43
2017-01-27T12:10:58.784Z,809.63
2017-01-27T12:11:58.785Z,811.35
2017-01-27T12:12:58.810Z,813.61
2017-01-27T12:13:58.797Z,814.91
2017-01-27T12:14:58.793Z,816.01
2017-01-27T12:15:58.815Z,816.74
2017-01-27T12:16:58.805Z,816.58
2017-01-27T12:17:58.800Z,816.85
2017-01-27T12:18:58.795Z,817.12
2017-01-27T12:19:58.824Z,816.65
2017-01-27T12:20:58.842Z,817.71
2017-01-27T12:21:58.797Z,818.43
2017-01-27T12:22:58.814Z,819.1
2017-01-27T12:23:58.835Z,819.42
2017-01-27T12:24:58.797Z,818.05
2017-01-27T12:25:58.797Z,819.99
2017-01-27T12:26:58.825Z,820.42
2017-01-27T12:27:58.793Z,820.57
2017-01-27T12:28:58.797Z,821.01
2017-01-27T12:29:58.790Z,821.69
2017-01-27T12:30:58.825Z,821.59
2017-01-27T12:31:58.805Z,822.9
2017-01-27T12:32:58.806Z,824.4
2017-01-27T12:33:58.814Z,825.71